createdAt,value
2022-09-28T00:02:13.336Z,17.31
2022-09-28T00:04:40.254Z,17.30
2022-09-28T00:07:07.132Z,17.29
2022-09-28T00:09:33.948Z,17.25
2022-09-28T00:12:01.159Z,17.16
2022-09-28T00:14:28.330Z,17.18
2022-09-28T00:16:55.318Z,17.16
2022-09-28T00:19:22.292Z,17.12
2022-09-28T00:21:49.237Z,17.04
2022-09-28T00:24:16.127Z,17.02
2022-09-28T00:26:50.504Z,17.03
2022-09-28T00:29:32.966Z,17.00
2022-09-28T00:32:02.612Z,16.79
2022-09-28T00:34:33.809Z,16.74
2022-09-28T00:37:01.123Z,16.89
2022-09-28T00:39:28.138Z,16.87
2022-09-28T00:41:55.112Z,16.85
2022-09-28T00:44:39.159Z,16.80
2022-09-28T00:47:26.770Z,16.74
2022-09-28T00:50:05.465Z,16.61
2022-09-28T00:52:36.497Z,16.52
2022-09-28T00:55:05.553Z,16.54
2022-09-28T00:57:32.436Z,16.35
2022-09-28T00:59:59.675Z,16.47
2022-09-28T01:02:26.637Z,16.44
2022-09-28T01:04:53.611Z,16.38
2022-09-28T01:07:20.513Z,16.27
2022-09-28T01:09:47.672Z,16.26
2022-09-28T01:12:14.590Z,16.26
2022-09-28T01:14:41.508Z,16.23
2022-09-28T01:17:15.687Z,16.21
2022-09-28T01:20:18.131Z,16.16
2022-09-28T01:22:55.143Z,16.11
2022-09-28T01:25:28.238Z,16.01
2022-09-28T01:28:15.076Z,16.11
2022-09-28T01:31:00.347Z,16.13
2022-09-28T01:33:30.104Z,16.06
2022-09-28T01:36:04.484Z,16.05
2022-09-28T01:38:34.223Z,16.06
2022-09-28T01:41:01.094Z,16.06
2022-09-28T01:43:28.651Z,16.03
2022-09-28T01:46:18.795Z,15.93
2022-09-28T01:48:59.924Z,15.97
2022-09-28T01:51:52.182Z,15.96
2022-09-28T01:54:26.954Z,15.89
2022-09-28T01:57:05.989Z,15.87
2022-09-28T01:59:33.813Z,15.87
2022-09-28T02:02:07.221Z,15.86
2022-09-28T02:04:37.215Z,15.85
2022-09-28T02:07:09.740Z,15.84
2022-09-28T02:09:46.153Z,15.89
2022-09-28T02:12:16.434Z,16.04
2022-09-28T02:14:44.736Z,16.15
2022-09-28T02:17:11.601Z,16.12
2022-09-28T02:19:38.468Z,16.16
2022-09-28T02:22:05.186Z,16.22
2022-09-28T02:24:46.474Z,16.15
2022-09-28T02:27:41.506Z,16.37
2022-09-28T02:30:09.025Z,16.37
2022-09-28T02:32:40.273Z,16.30
2022-09-28T02:35:10.989Z,16.53
2022-09-28T02:37:38.794Z,16.67
2022-09-28T02:40:24.554Z,16.74
2022-09-28T02:43:23.778Z,16.74
2022-09-28T02:46:02.233Z,16.63
2022-09-28T02:49:17.503Z,16.89
2022-09-28T02:52:04.708Z,16.97
2022-09-28T02:54:49.929Z,16.98
2022-09-28T02:57:19.749Z,17.02
2022-09-28T03:00:15.033Z,17.14
2022-09-28T03:03:00.616Z,17.23
2022-09-28T03:05:53.984Z,17.24
2022-09-28T03:08:31.185Z,17.22
2022-09-28T03:11:04.309Z,17.23
2022-09-28T03:13:32.198Z,17.29
2022-09-28T03:16:12.802Z,17.33
2022-09-28T03:18:41.343Z,17.33
2022-09-28T03:21:08.224Z,17.37
2022-09-28T03:23:35.276Z,17.41
2022-09-28T03:26:02.789Z,17.50
2022-09-28T03:28:30.380Z,17.59
2022-09-28T03:30:58.063Z,17.57
2022-09-28T03:33:25.146Z,17.56
2022-09-28T03:35:53.399Z,17.57
2022-09-28T03:38:20.589Z,17.63
2022-09-28T03:40:58.110Z,17.69
2022-09-28T03:43:25.406Z,17.68
2022-09-28T03:45:55.503Z,17.64
2022-09-28T03:48:31.361Z,17.66
2022-09-28T03:51:00.808Z,17.72
2022-09-28T03:53:29.588Z,17.61
2022-09-28T03:55:56.746Z,17.80
2022-09-28T03:58:23.702Z,17.82
2022-09-28T04:00:51.321Z,17.79
2022-09-28T04:03:18.419Z,17.80
2022-09-28T04:05:50.019Z,17.89
2022-09-28T04:08:17.248Z,17.78
2022-09-28T04:10:45.662Z,17.85
2022-09-28T04:13:12.701Z,17.84
2022-09-28T04:15:40.832Z,17.92
2022-09-28T04:18:11.528Z,18.00
2022-09-28T04:21:10.837Z,18.02
2022-09-28T04:23:44.706Z,17.95
2022-09-28T04:26:18.822Z,17.94
2022-09-28T04:29:06.765Z,17.96
2022-09-28T04:31:42.086Z,17.86
2022-09-28T04:34:10.032Z,18.02
2022-09-28T04:36:37.190Z,17.81
2022-09-28T04:39:04.272Z,17.95
2022-09-28T04:41:32.415Z,17.96
2022-09-28T04:43:59.403Z,18.06
2022-09-28T04:46:26.450Z,18.07
2022-09-28T04:49:22.601Z,18.01
2022-09-28T04:51:53.108Z,17.88
2022-09-28T04:54:20.014Z,18.03
2022-09-28T04:56:46.831Z,17.88
2022-09-28T04:59:13.786Z,18.08
2022-09-28T05:01:42.505Z,18.03
2022-09-28T05:04:28.326Z,18.03
2022-09-28T05:07:10.096Z,18.02
2022-09-28T05:09:38.661Z,18.13
2022-09-28T05:12:05.829Z,18.13
2022-09-28T05:14:32.687Z,18.10
2022-09-28T05:17:00.036Z,18.05
2022-09-28T05:19:27.013Z,18.02
2022-09-28T05:22:00.528Z,18.09
2022-09-28T05:24:27.597Z,18.11
2022-09-28T05:26:54.463Z,18.09
2022-09-28T05:29:21.460Z,18.04
2022-09-28T05:32:06.828Z,18.03
2022-09-28T05:34:52.526Z,18.13
2022-09-28T05:37:24.959Z,18.18
2022-09-28T05:39:51.852Z,18.19
2022-09-28T05:42:18.722Z,18.08
2022-09-28T05:44:45.618Z,18.08
2022-09-28T05:47:12.792Z,18.12
2022-09-28T05:49:39.745Z,18.24
2022-09-28T05:52:06.573Z,18.16
2022-09-28T05:54:37.387Z,18.13
2022-09-28T05:57:05.301Z,18.11
2022-09-28T05:59:32.115Z,18.13
2022-09-28T06:02:00.236Z,18.15
2022-09-28T06:04:27.296Z,18.16
2022-09-28T06:06:54.221Z,18.14
2022-09-28T06:09:25.927Z,18.10
2022-09-28T06:11:59.548Z,18.10
2022-09-28T06:14:55.312Z,18.18
2022-09-28T06:17:23.664Z,18.14
2022-09-28T06:20:11.662Z,18.21
2022-09-28T06:23:09.192Z,17.86
2022-09-28T06:25:36.187Z,18.09
2022-09-28T06:28:08.943Z,18.27
2022-09-28T06:30:38.148Z,18.29
2022-09-28T06:33:08.454Z,18.27
2022-09-28T06:35:36.641Z,18.10
2022-09-28T06:38:03.767Z,18.24
2022-09-28T06:40:31.703Z,18.18
2022-09-28T06:43:03.266Z,18.43
2022-09-28T06:45:52.728Z,18.11
2022-09-28T06:48:38.103Z,18.37
2022-09-28T06:51:07.168Z,18.36
2022-09-28T06:53:41.619Z,18.33
2022-09-28T06:56:22.182Z,18.35
2022-09-28T06:58:49.371Z,18.35
2022-09-28T07:01:16.311Z,18.33
2022-09-28T07:03:55.839Z,18.34
2022-09-28T07:06:47.780Z,18.29
2022-09-28T07:09:35.037Z,18.44
2022-09-28T07:12:42.084Z,18.41
2022-09-28T07:15:31.891Z,18.42
2022-09-28T07:18:03.081Z,18.45
2022-09-28T07:20:31.740Z,18.52
2022-09-28T07:23:11.545Z,18.77
2022-09-28T07:26:07.786Z,18.86
2022-09-28T07:29:13.178Z,18.79
2022-09-28T07:31:55.042Z,18.85
2022-09-28T07:34:46.264Z,18.94
2022-09-28T07:37:27.508Z,19.06
2022-09-28T07:40:13.440Z,19.19
2022-09-28T07:42:40.340Z,19.17
2022-09-28T07:45:07.863Z,19.22
2022-09-28T07:47:35.402Z,19.22
2022-09-28T07:50:21.318Z,19.28
2022-09-28T07:53:08.487Z,19.31
2022-09-28T07:55:53.143Z,19.30
2022-09-28T07:58:39.146Z,19.38
2022-09-28T08:01:32.255Z,19.42
2022-09-28T08:04:00.038Z,19.51
2022-09-28T08:06:26.908Z,19.60
2022-09-28T08:08:56.313Z,19.52
2022-09-28T08:11:29.472Z,19.82
2022-09-28T08:14:22.423Z,19.67
2022-09-28T08:17:01.280Z,19.78
2022-09-28T08:20:04.798Z,20.00
2022-09-28T08:22:32.368Z,19.98
2022-09-28T08:25:00.434Z,20.17
2022-09-28T08:27:27.763Z,20.24
2022-09-28T08:29:54.902Z,20.04
2022-09-28T08:32:44.979Z,19.96
2022-09-28T08:35:31.586Z,20.33
2022-09-28T08:38:13.625Z,20.51
2022-09-28T08:41:07.540Z,20.53
2022-09-28T08:43:59.732Z,20.54
2022-09-28T08:46:38.889Z,20.67
2022-09-28T08:49:37.093Z,20.83
2022-09-28T08:52:36.527Z,20.82
2022-09-28T08:55:17.209Z,20.98
2022-09-28T08:58:05.428Z,21.16
2022-09-28T09:00:47.622Z,21.18
2022-09-28T09:03:20.300Z,21.24
2022-09-28T09:06:30.092Z,21.35
2022-09-28T09:09:01.073Z,21.34
2022-09-28T09:11:49.339Z,21.41
2022-09-28T09:14:51.672Z,21.60
2022-09-28T09:17:42.990Z,21.53
2022-09-28T09:20:54.921Z,21.54
2022-09-28T09:23:46.577Z,21.68
2022-09-28T09:26:22.767Z,21.83
2022-09-28T09:29:03.041Z,21.96
2022-09-28T09:31:59.696Z,22.03
2022-09-28T09:34:42.508Z,22.00
2022-09-28T09:37:49.922Z,22.02
2022-09-28T09:40:38.511Z,22.04
2022-09-28T09:43:31.800Z,22.07
2022-09-28T09:46:30.017Z,22.20
2022-09-28T09:49:25.124Z,22.30
2022-09-28T09:52:15.178Z,22.40
2022-09-28T09:55:01.817Z,22.45
2022-09-28T09:57:41.254Z,22.37
2022-09-28T10:00:25.031Z,22.38
2022-09-28T10:03:04.734Z,22.37
2022-09-28T10:05:38.711Z,22.48
2022-09-28T10:08:08.628Z,22.49
2022-09-28T10:10:38.131Z,22.48
2022-09-28T10:13:11.004Z,22.49
2022-09-28T10:15:38.992Z,22.51
2022-09-28T10:18:16.625Z,22.54
2022-09-28T10:21:03.590Z,22.54
2022-09-28T10:24:49.834Z,22.58
2022-09-28T10:27:19.549Z,22.58
2022-09-28T10:29:50.143Z,22.33
2022-09-28T10:32:41.289Z,22.61
2022-09-28T10:35:22.776Z,22.46
2022-09-28T10:38:17.077Z,22.71
2022-09-28T10:40:47.713Z,22.81
2022-09-28T10:43:38.562Z,22.97
2022-09-28T10:46:12.793Z,23.05
2022-09-28T10:49:00.694Z,23.09
2022-09-28T10:51:43.657Z,23.05
2022-09-28T10:54:17.760Z,23.09
2022-09-28T10:56:46.909Z,23.10
2022-09-28T10:59:29.334Z,23.14
2022-09-28T11:02:26.535Z,23.02
2022-09-28T11:05:01.261Z,23.12
2022-09-28T11:07:33.496Z,23.05
2022-09-28T11:10:01.087Z,23.15
2022-09-28T11:12:37.140Z,23.16
2022-09-28T11:15:06.296Z,23.21
2022-09-28T11:17:34.284Z,23.27
2022-09-28T11:20:26.062Z,23.13
2022-09-28T11:22:59.202Z,23.31
2022-09-28T11:25:31.401Z,23.42
2022-09-28T11:28:00.999Z,23.38
2022-09-28T11:30:29.726Z,23.41
2022-09-28T11:33:20.749Z,23.41
2022-09-28T11:36:32.268Z,23.48
2022-09-28T11:39:11.448Z,23.51
2022-09-28T11:42:24.044Z,23.55
2022-09-28T11:44:54.074Z,23.51
2022-09-28T11:47:49.982Z,23.53
2022-09-28T11:50:36.179Z,23.62
2022-09-28T11:53:13.803Z,23.56
2022-09-28T11:56:08.869Z,23.58
2022-09-28T11:58:53.605Z,23.48
2022-09-28T12:01:26.672Z,23.60
2022-09-28T12:04:33.976Z,23.61
2022-09-28T12:07:09.181Z,23.61
2022-09-28T12:09:39.088Z,23.58
2022-09-28T12:12:32.603Z,23.76
2022-09-28T12:15:59.236Z,23.71
2022-09-28T12:18:40.124Z,23.73
2022-09-28T12:21:09.719Z,23.78
2022-09-28T12:23:37.367Z,23.78
2022-09-28T12:26:05.774Z,23.71
2022-09-28T12:28:39.609Z,23.62
2022-09-28T12:31:14.875Z,23.69
2022-09-28T12:33:42.704Z,23.73
2022-09-28T12:36:28.549Z,23.71
2022-09-28T12:39:27.124Z,23.60
2022-09-28T12:42:21.190Z,23.56
2022-09-28T12:45:10.102Z,23.64
2022-09-28T12:47:43.082Z,23.64
2022-09-28T12:53:14.972Z,23.75
2022-09-28T12:56:01.835Z,23.70
2022-09-28T12:59:05.413Z,23.76
2022-09-28T13:01:39.602Z,23.67
2022-09-28T13:04:12.781Z,23.66
2022-09-28T13:06:59.067Z,23.61
2022-09-28T13:09:26.807Z,23.56
2022-09-28T13:12:13.104Z,23.57
2022-09-28T13:15:01.199Z,23.56
2022-09-28T13:17:39.156Z,23.57
2022-09-28T13:20:39.354Z,23.46
2022-09-28T13:23:15.406Z,23.53
2022-09-28T13:26:11.508Z,23.52
2022-09-28T13:28:38.372Z,23.49
2022-09-28T13:31:05.199Z,23.45
2022-09-28T13:33:40.260Z,23.48
2022-09-28T13:36:25.966Z,23.47
2022-09-28T13:38:53.078Z,23.29
2022-09-28T13:41:40.531Z,23.48
2022-09-28T13:44:13.464Z,23.48
2022-09-28T13:46:58.748Z,23.38
2022-09-28T13:49:41.001Z,23.42
2022-09-28T13:52:47.992Z,23.44
2022-09-28T13:55:33.275Z,23.40
2022-09-28T13:58:21.487Z,23.38
2022-09-28T14:00:51.340Z,23.34
2022-09-28T14:03:24.330Z,23.33
2022-09-28T14:06:00.834Z,23.37
2022-09-28T14:08:34.755Z,23.30
2022-09-28T14:11:34.280Z,23.27
2022-09-28T14:14:14.178Z,23.23
2022-09-28T14:16:41.637Z,23.20
2022-09-28T14:19:21.611Z,23.22
2022-09-28T14:22:07.164Z,23.21
2022-09-28T14:24:37.828Z,23.29
2022-09-28T14:27:18.993Z,23.20
2022-09-28T14:29:45.906Z,23.16
2022-09-28T14:32:12.673Z,23.15
2022-09-28T14:34:54.740Z,23.18
2022-09-28T14:37:43.393Z,23.12
2022-09-28T14:40:36.164Z,23.13
2022-09-28T14:43:34.781Z,23.19
2022-09-28T14:46:23.219Z,23.09
2022-09-28T14:48:52.694Z,23.08
2022-09-28T14:51:31.364Z,23.08
2022-09-28T14:54:04.570Z,23.05
2022-09-28T14:56:40.390Z,23.05
2022-09-28T14:59:07.566Z,23.02
2022-09-28T15:01:34.415Z,22.87
2022-09-28T15:04:04.841Z,23.01
2022-09-28T15:06:48.522Z,22.97
2022-09-28T15:09:44.463Z,22.94
2022-09-28T15:12:13.161Z,22.92
2022-09-28T15:14:56.461Z,22.91
2022-09-28T15:17:39.280Z,22.88
2022-09-28T15:20:30.085Z,22.80
2022-09-28T15:22:58.454Z,22.83
2022-09-28T15:25:30.110Z,22.81
2022-09-28T15:28:03.500Z,22.80
2022-09-28T15:30:32.009Z,22.81
2022-09-28T15:33:18.523Z,22.75
2022-09-28T15:35:55.755Z,22.83
2022-09-28T15:38:22.630Z,22.81
2022-09-28T15:40:49.493Z,22.80
2022-09-28T15:43:29.067Z,22.69
2022-09-28T15:46:11.232Z,22.63
2022-09-28T15:48:52.172Z,22.59
2022-09-28T15:51:20.035Z,22.42
2022-09-28T15:53:58.933Z,22.53
2022-09-28T15:56:26.274Z,22.50
2022-09-28T15:59:13.185Z,22.58
2022-09-28T16:01:41.026Z,22.46
2022-09-28T16:04:38.778Z,22.45
2022-09-28T16:07:23.979Z,22.55
2022-09-28T16:10:01.036Z,22.47
2022-09-28T16:12:36.597Z,22.53
2022-09-28T16:15:07.141Z,22.53
2022-09-28T16:17:35.013Z,22.48
2022-09-28T16:20:03.845Z,22.47
2022-09-28T16:22:32.555Z,22.37
2022-09-28T16:25:00.051Z,22.39
2022-09-28T16:27:29.773Z,22.37
2022-09-28T16:30:16.995Z,22.38
2022-09-28T16:32:52.595Z,22.34
2022-09-28T16:35:19.417Z,22.28
2022-09-28T16:37:58.059Z,22.26
2022-09-28T16:40:25.045Z,22.25
2022-09-28T16:42:51.908Z,22.22
2022-09-28T16:45:20.388Z,22.19
2022-09-28T16:47:47.977Z,22.11
2022-09-28T16:50:15.176Z,22.08
2022-09-28T16:53:00.827Z,22.06
2022-09-28T16:55:40.053Z,22.03
2022-09-28T16:58:08.209Z,21.93
2022-09-28T17:00:35.078Z,21.86
2022-09-28T17:03:02.278Z,21.82
2022-09-28T17:05:29.545Z,21.79
2022-09-28T17:08:03.420Z,21.67
2022-09-28T17:10:50.049Z,21.71
2022-09-28T17:13:33.148Z,21.70
2022-09-28T17:16:01.638Z,21.68
2022-09-28T17:18:31.810Z,21.60
2022-09-28T17:21:01.564Z,21.57
2022-09-28T17:23:28.511Z,21.55
2022-09-28T17:25:55.673Z,21.52
2022-09-28T17:28:26.081Z,21.48
2022-09-28T17:30:53.130Z,21.44
2022-09-28T17:33:20.246Z,21.41
2022-09-28T17:35:47.303Z,21.47
2022-09-28T17:38:15.155Z,21.45
2022-09-28T17:40:43.201Z,21.45
2022-09-28T17:43:10.145Z,21.38
2022-09-28T17:45:41.064Z,21.31
2022-09-28T17:48:12.555Z,21.37
2022-09-28T17:50:43.187Z,21.30
2022-09-28T17:53:12.882Z,21.35
2022-09-28T17:55:39.945Z,21.33
2022-09-28T17:58:17.818Z,21.21
2022-09-28T18:00:45.585Z,21.13
2022-09-28T18:03:16.988Z,21.14
2022-09-28T18:05:44.177Z,21.09
2022-09-28T18:08:17.131Z,21.34
2022-09-28T18:10:44.019Z,21.06
2022-09-28T18:13:10.995Z,21.06
2022-09-28T18:15:38.303Z,20.89
2022-09-28T18:18:05.270Z,20.95
2022-09-28T18:20:32.142Z,20.72
2022-09-28T18:22:58.995Z,20.90
2022-09-28T18:25:25.782Z,21.17
2022-09-28T18:27:57.284Z,21.09
2022-09-28T18:30:24.640Z,20.99
2022-09-28T18:32:51.520Z,21.06
2022-09-28T18:35:22.755Z,21.06
2022-09-28T18:37:50.372Z,21.07
2022-09-28T18:40:17.308Z,20.95
2022-09-28T18:42:44.233Z,21.05
2022-09-28T18:45:11.344Z,21.01
2022-09-28T18:47:39.055Z,20.96
2022-09-28T18:50:06.420Z,20.92
2022-09-28T18:52:36.371Z,20.96
2022-09-28T18:55:03.399Z,20.87
2022-09-28T18:57:33.561Z,20.86
2022-09-28T19:00:01.295Z,20.82
2022-09-28T19:02:28.262Z,20.84
2022-09-28T19:04:55.234Z,20.81
2022-09-28T19:07:22.121Z,20.77
2022-09-28T19:09:48.972Z,20.75
2022-09-28T19:12:16.056Z,20.76
2022-09-28T19:14:42.907Z,20.73
2022-09-28T19:17:10.251Z,20.65
2022-09-28T19:19:37.103Z,20.67
2022-09-28T19:22:04.349Z,20.60
2022-09-28T19:24:31.273Z,20.55
2022-09-28T19:26:58.137Z,20.50
2022-09-28T19:29:25.032Z,20.52
2022-09-28T19:31:51.953Z,20.53
2022-09-28T19:34:19.021Z,20.33
2022-09-28T19:36:45.966Z,20.42
2022-09-28T19:39:14.222Z,20.42
2022-09-28T19:41:43.344Z,20.40
2022-09-28T19:44:31.283Z,20.30
2022-09-28T19:47:10.077Z,20.27
2022-09-28T19:49:39.275Z,20.34
2022-09-28T19:52:16.790Z,20.33
2022-09-28T19:54:45.509Z,20.16
2022-09-28T19:57:13.110Z,20.17
2022-09-28T19:59:40.007Z,20.34
2022-09-28T20:02:07.231Z,20.30
2022-09-28T20:04:34.172Z,20.25
2022-09-28T20:07:01.884Z,20.31
2022-09-28T20:09:28.932Z,19.94
2022-09-28T20:11:55.893Z,20.20
2022-09-28T20:14:24.590Z,20.06
2022-09-28T20:16:55.213Z,19.93
2022-09-28T20:19:23.266Z,20.05
2022-09-28T20:21:50.448Z,20.10
2022-09-28T20:24:17.545Z,20.08
2022-09-28T20:26:45.940Z,19.99
2022-09-28T20:29:12.974Z,19.89
2022-09-28T20:31:40.071Z,20.04
2022-09-28T20:34:07.104Z,19.86
2022-09-28T20:36:34.191Z,19.93
2022-09-28T20:39:04.114Z,19.95
2022-09-28T20:41:35.702Z,19.92
2022-09-28T20:44:05.636Z,19.83
2022-09-28T20:46:36.480Z,19.67
2022-09-28T20:49:04.115Z,19.82
2022-09-28T20:51:31.110Z,19.77
2022-09-28T20:53:58.231Z,19.76
2022-09-28T20:56:30.580Z,19.81
2022-09-28T20:58:57.538Z,19.67
2022-09-28T21:01:25.824Z,19.65
2022-09-28T21:04:02.828Z,19.63
2022-09-28T21:06:31.146Z,19.59
2022-09-28T21:08:58.166Z,19.64
2022-09-28T21:11:25.971Z,19.58
2022-09-28T21:13:56.648Z,19.55
2022-09-28T21:16:23.475Z,19.46
2022-09-28T21:18:50.306Z,19.50
2022-09-28T21:21:18.310Z,19.53
2022-09-28T21:23:45.192Z,19.50
2022-09-28T21:26:17.672Z,19.48
2022-09-28T21:28:46.017Z,19.48
2022-09-28T21:31:12.981Z,19.42
2022-09-28T21:33:39.913Z,19.32
2022-09-28T21:36:07.586Z,19.30
2022-09-28T21:38:34.716Z,19.40
2022-09-28T21:41:01.653Z,19.28
2022-09-28T21:43:29.077Z,19.27
2022-09-28T21:45:56.119Z,19.25
2022-09-28T21:48:23.509Z,19.24
2022-09-28T21:51:03.716Z,19.30
2022-09-28T21:53:35.081Z,19.27
2022-09-28T21:56:02.261Z,19.11
2022-09-28T21:58:30.588Z,19.22
2022-09-28T22:01:07.084Z,19.16
2022-09-28T22:03:35.569Z,19.15
2022-09-28T22:06:03.496Z,19.13
2022-09-28T22:08:30.371Z,19.13
2022-09-28T22:11:07.383Z,19.12
2022-09-28T22:13:47.890Z,19.12
2022-09-28T22:16:15.824Z,19.15
2022-09-28T22:18:42.818Z,19.16
2022-09-28T22:21:35.778Z,19.10
2022-09-28T22:24:03.813Z,19.05
2022-09-28T22:26:31.871Z,19.01
2022-09-28T22:29:00.281Z,19.00
2022-09-28T22:31:31.606Z,19.00
2022-09-28T22:33:58.758Z,18.97
2022-09-28T22:36:25.982Z,18.84
2022-09-28T22:38:53.765Z,18.96
2022-09-28T22:41:20.962Z,18.82
2022-09-28T22:43:48.760Z,18.79
2022-09-28T22:46:17.212Z,18.89
2022-09-28T22:48:52.669Z,18.90
2022-09-28T22:51:19.727Z,18.87
2022-09-28T22:53:46.545Z,18.88
2022-09-28T22:56:18.367Z,18.87
2022-09-28T22:58:45.715Z,18.83
2022-09-28T23:01:13.498Z,18.76
2022-09-28T23:03:40.541Z,18.71
2022-09-28T23:06:07.620Z,18.69
2022-09-28T23:08:34.618Z,18.74
2022-09-28T23:11:01.576Z,18.69
2022-09-28T23:13:28.875Z,18.65
2022-09-28T23:16:02.959Z,18.64
2022-09-28T23:18:31.696Z,18.59
2022-09-28T23:21:00.171Z,18.58
2022-09-28T23:23:27.103Z,18.68
2022-09-28T23:25:54.053Z,18.68
2022-09-28T23:28:21.735Z,18.70
2022-09-28T23:30:48.803Z,18.69
2022-09-28T23:33:16.657Z,18.68
2022-09-28T23:35:44.028Z,18.65
2022-09-28T23:38:14.573Z,18.61
2022-09-28T23:40:41.614Z,18.52
2022-09-28T23:43:08.616Z,18.37
2022-09-28T23:45:35.492Z,18.47
2022-09-28T23:48:02.543Z,18.51
2022-09-28T23:50:29.402Z,18.47
2022-09-28T23:52:56.310Z,18.46
2022-09-28T23:55:23.308Z,18.30
2022-09-28T23:57:50.501Z,18.34
